Time,TemperatureF,DewpointF,PressureIn,WindDirection,WindDirectionDegrees,WindSpeedMPH,WindSpeedGustMPH,Humidity,HourlyPrecipIn,Conditions,Clouds,dailyrainin,SolarRadiationWatts/m^2,SoftwareType,DateUTC
2013-04-02 00:03:00,48.4,45.9,30.11,SE,128,10.0,11.5,91,0.00,CLR,,0.00,0.0,WeatherDisplay:10.37,2013-04-02 07:03:00,
2013-04-02 00:08:00,48.3,45.8,30.11,SE,131,11.2,12.7,91,0.00,CLR,,0.00,0.0,WeatherDisplay:10.37,2013-04-02 07:08:00,
2013-04-02 00:13:00,48.3,45.8,30.11,SE,133,12.7,12.7,91,0.00,CLR,,0.00,0.0,WeatherDisplay:10.37,2013-04-02 07:13:00,
2013-04-02 00:18:00,48.2,45.7,30.11,SE,145,9.6,12.7,91,0.00,CLR,,0.00,0.0,WeatherDisplay:10.37,2013-04-02 07:18:00,
2013-04-02 00:23:00,48.2,46.0,30.11,SE,143,10.3,12.7,92,0.00,CLR,,0.00,0.0,WeatherDisplay:10.37,2013-04-02 07:23:00,
2013-04-02 00:28:00,48.1,45.9,30.11,SE,146,11.5,15.0,92,0.00,CLR,,0.00,0.0,WeatherDisplay:10.37,2013-04-02 07:28:00,
2013-04-02 00:33:00,48.1,45.6,30.11,SE,140,12.6,12.7,91,0.00,CLR,,0.00,0.0,WeatherDisplay:10.37,2013-04-02 07:33:00,
2013-04-02 00:38:00,48.0,45.8,30.12,SE,138,8.9,10.4,92,0.00,CLR,,0.00,0.0,WeatherDisplay:10.37,2013-04-02 07:38:00,
2013-04-02 00:43:00,47.9,45.7,30.12,SE,144,12.4,12.7,92,0.00,CLR,,0.00,0.0,WeatherDisplay:10.37,2013-04-02 07:43:00,
2013-04-02 00:48:00,47.9,45.7,30.12,SE,138,13.0,13.8,92,0.00,CLR,,0.00,0.0,WeatherDisplay:10.37,2013-04-02 07:48:00,
2013-04-02 00:53:00,47.8,45.6,30.13,SSE,153,10.4,13.8,92,0.00,CLR,,0.00,0.0,WeatherDisplay:10.37,2013-04-02 07:53:00,
2013-04-02 00:58:00,47.8,45.6,30.13,SSE,149,12.4,13.8,92,0.00,CLR,,0.00,0.0,WeatherDisplay:10.37,2013-04-02 07:58:00,
2013-04-02 01:03:00,47.8,45.6,30.13,SSE,151,10.5,11.5,92,0.00,CLR,,0.00,0.0,WeatherDisplay:10.37,2013-04-02 08:03:00,
2013-04-02 01:08:00,47.8,45.6,30.13,SE,144,10.3,12.7,92,0.00,CLR,,0.00,0.0,WeatherDisplay:10.37,2013-04-02 08:08:00,
2013-04-02 01:13:00,47.8,45.6,30.13,SSE,148,9.2,13.8,92,0.00,CLR,,0.00,0.0,WeatherDisplay:10.37,2013-04-02 08:13:00,
2013-04-02 01:18:00,47.7,45.5,30.13,SE,142,7.6,10.1,92,0.00,CLR,,0.00,0.0,WeatherDisplay:10.37,2013-04-02 08:18:00,
2013-04-02 01:23:00,47.7,45.8,30.14,SSE,153,10.7,12.3,93,0.00,CLR,,0.00,0.0,WeatherDisplay:10.37,2013-04-02 08:23:00,
2013-04-02 01:28:00,47.7,45.5,30.14,SE,129,10.5,13.8,92,0.00,CLR,,0.00,0.0,WeatherDisplay:10.37,2013-04-02 08:28:00,
2013-04-02 01:33:00,47.7,45.8,30.14,SE,138,12.5,12.7,93,0.00,CLR,,0.00,0.0,WeatherDisplay:10.37,2013-04-02 08:33:00,
2013-04-02 01:38:00,47.7,45.5,30.14,SE,129,7.1,11.5,92,0.00,CLR,,0.00,0.0,WeatherDisplay:10.37,2013-04-02 08:38:00,
2013-04-02 01:43:00,47.7,45.8,30.14,SSE,148,7.8,11.5,93,0.00,CLR,,0.00,0.0,WeatherDisplay:10.37,2013-04-02 08:43:00,
2013-04-02 01:48:00,47.7,45.5,30.14,SSE,163,13.7,17.3,92,0.00,CLR,,0.00,0.0,WeatherDisplay:10.37,2013-04-02 08:48:00,
2013-04-02 01:53:00,47.7,45.5,30.14,SE,128,11.7,12.7,92,0.00,CLR,,0.00,0.0,WeatherDisplay:10.37,2013-04-02 08:53:00,
2013-04-02 01:58:00,47.8,45.9,30.14,SSE,147,12.5,12.7,93,0.00,CLR,,0.00,0.0,WeatherDisplay:10.37,2013-04-02 08:58:00,
2013-04-02 02:03:00,47.9,46.0,30.14,SE,133,14.0,16.1,93,0.00,SCT,,0.00,0.0,WeatherDisplay:10.37,2013-04-02 09:03:00,
2013-04-02 02:08:00,48.0,46.1,30.14,SE,144,13.5,13.8,93,0.00,SCT,,0.00,0.0,WeatherDisplay:10.37,2013-04-02 09:08:00,
2013-04-02 02:13:00,48.1,46.2,30.14,SSE,152,11.8,16.1,93,0.00,SCT,,0.00,0.0,WeatherDisplay:10.37,2013-04-02 09:13:00,
2013-04-02 02:18:00,48.1,46.2,30.14,ESE,121,12.2,13.8,93,0.00,SCT,,0.00,0.0,WeatherDisplay:10.37,2013-04-02 09:18:00,
2013-04-02 02:23:00,48.2,46.3,30.14,SE,127,11.4,12.7,93,0.00,SCT,,0.00,0.0,WeatherDisplay:10.37,2013-04-02 09:23:00,
2013-04-02 02:28:00,48.3,46.4,30.14,SE,134,12.1,12.7,93,0.00,SCT,,0.00,0.0,WeatherDisplay:10.37,2013-04-02 09:28:00,
2013-04-02 02:33:00,48.3,46.4,30.14,SE,128,9.6,10.4,93,0.00,SCT,,0.00,0.0,WeatherDisplay:10.37,2013-04-02 09:33:00,
2013-04-02 02:38:00,48.4,46.5,30.14,SE,136,11.8,11.8,93,0.00,SCT,,0.00,0.0,WeatherDisplay:10.37,2013-04-02 09:38:00,
2013-04-02 02:43:00,48.4,46.5,30.14,SE,133,13.4,14.6,93,0.00,SCT,,0.00,0.0,WeatherDisplay:10.37,2013-04-02 09:43:00,
2013-04-02 02:48:00,48.4,46.5,30.14,SE,144,15.3,15.3,93,0.00,SCT,,0.00,0.0,WeatherDisplay:10.37,2013-04-02 09:48:00,
2013-04-02 02:53:00,48.4,46.5,30.14,SSE,152,10.9,12.7,93,0.00,SCT,,0.00,0.0,WeatherDisplay:10.37,2013-04-02 09:53:00,
2013-04-02 02:58:00,48.4,46.2,30.14,SSE,147,8.9,11.5,92,0.00,SCT,,0.00,0.0,WeatherDisplay:10.37,2013-04-02 09:58:00,
2013-04-02 03:03:00,48.3,46.1,30.14,SE,134,8.3,11.5,92,0.00,FEW,,0.00,0.0,WeatherDisplay:10.37,2013-04-02 10:03:00,
2013-04-02 03:08:00,48.3,46.1,30.15,South,172,6.7,9.2,92,0.00,FEW,,0.00,0.0,WeatherDisplay:10.37,2013-04-02 10:08:00,
2013-04-02 03:13:00,48.2,46.0,30.15,SSE,166,6.1,8.1,92,0.00,FEW,,0.00,0.0,WeatherDisplay:10.37,2013-04-02 10:13:00,
2013-04-02 03:18:00,48.2,46.0,30.15,SSE,163,2.9,8.1,92,0.00,CLR,,0.00,0.0,WeatherDisplay:10.37,2013-04-02 10:18:00,
2013-04-02 03:23:00,48.1,45.9,30.15,SSE,155,6.7,8.1,92,0.00,CLR,,0.00,0.0,WeatherDisplay:10.37,2013-04-02 10:23:00,
2013-04-02 03:28:00,48.1,45.6,30.15,SSE,155,8.0,8.1,91,0.00,CLR,,0.00,0.0,WeatherDisplay:10.37,2013-04-02 10:28:00,
2013-04-02 03:33:00,48.1,45.6,30.14,South,172,8.8,10.4,91,0.00,CLR,,0.00,0.0,WeatherDisplay:10.37,2013-04-02 10:33:00,
2013-04-02 03:38:00,48.1,45.6,30.15,SE,134,9.7,12.7,91,0.00,CLR,,0.00,0.0,WeatherDisplay:10.37,2013-04-02 10:38:00,
2013-04-02 03:43:00,48.2,45.7,30.15,SSE,150,8.9,11.5,91,0.00,CLR,,0.00,0.0,WeatherDisplay:10.37,2013-04-02 10:43:00,
2013-04-02 03:48:00,48.2,45.7,30.15,SSE,161,4.6,9.0,91,0.00,CLR,,0.00,0.0,WeatherDisplay:10.37,2013-04-02 10:48:00,
2013-04-02 03:53:00,48.1,45.6,30.15,SSE,167,8.2,8.2,91,0.00,CLR,,0.00,0.0,WeatherDisplay:10.37,2013-04-02 10:53:00,
2013-04-02 03:58:00,48.1,45.6,30.15,SE,146,7.1,10.4,91,0.00,CLR,,0.00,0.0,WeatherDisplay:10.37,2013-04-02 10:58:00,
2013-04-02 04:03:00,48.2,45.7,30.15,SE,144,10.3,12.7,91,0.00,CLR,,0.00,0.0,WeatherDisplay:10.37,2013-04-02 11:03:00,
2013-04-02 04:08:00,48.2,45.7,30.15,SSE,160,10.1,11.5,91,0.00,CLR,,0.00,0.0,WeatherDisplay:10.37,2013-04-02 11:08:00,
2013-04-02 04:14:00,48.1,45.6,30.15,SSE,165,7.7,11.5,91,0.00,CLR,,0.00,0.0,WeatherDisplay:10.37,2013-04-02 11:14:00,
2013-04-02 04:19:00,48.1,45.3,30.15,SSE,157,4.3,11.5,90,0.00,CLR,,0.00,0.0,WeatherDisplay:10.37,2013-04-02 11:19:00,
2013-04-02 04:24:00,48.1,45.3,30.15,SSE,161,10.8,12.7,90,0.00,CLR,,0.00,0.0,WeatherDisplay:10.37,2013-04-02 11:24:00,
2013-04-02 04:29:00,48.1,45.3,30.15,SSE,160,6.7,10.1,90,0.00,CLR,,0.00,0.0,WeatherDisplay:10.37,2013-04-02 11:29:00,
2013-04-02 04:34:00,48.0,45.2,30.15,SSE,153,8.0,12.7,90,0.00,BKN,,0.00,0.0,WeatherDisplay:10.37,2013-04-02 11:34:00,
2013-04-02 04:39:00,48.0,45.2,30.15,SE,144,7.8,12.3,90,0.00,BKN,,0.00,0.0,WeatherDisplay:10.37,2013-04-02 11:39:00,
2013-04-02 04:44:00,48.0,45.2,30.15,South,175,11.2,13.8,90,0.00,BKN,,0.00,0.0,WeatherDisplay:10.37,2013-04-02 11:44:00,
2013-04-02 04:49:00,48.1,45.3,30.16,SSE,148,9.5,12.7,90,0.00,BKN,,0.00,0.0,WeatherDisplay:10.37,2013-04-02 11:49:00,
2013-04-02 04:55:00,48.2,45.4,30.16,SSE,163,2.6,0.0,90,0.00,BKN,,0.00,0.0,WeatherDisplay:10.37,2013-04-02 11:55:00,
2013-04-02 05:00:00,48.2,45.4,30.16,South,181,8.1,12.7,90,0.00,BKN,,0.00,0.0,WeatherDisplay:10.37,2013-04-02 12:00:00,
2013-04-02 05:05:00,48.2,45.4,30.16,South,184,9.2,12.7,90,0.00,OVC,,0.00,0.0,WeatherDisplay:10.37,2013-04-02 12:05:00,
2013-04-02 05:10:00,48.1,45.3,30.16,SSE,163,11.1,11.5,90,0.00,OVC,,0.00,0.0,WeatherDisplay:10.37,2013-04-02 12:10:00,
2013-04-02 05:15:00,48.1,45.3,30.16,SSE,165,9.0,12.7,90,0.00,OVC,,0.00,0.0,WeatherDisplay:10.37,2013-04-02 12:15:00,
2013-04-02 05:20:00,48.1,45.3,30.16,SSE,167,7.7,12.7,90,0.00,BKN,,0.00,0.0,WeatherDisplay:10.37,2013-04-02 12:20:00,
2013-04-02 05:25:00,48.0,44.9,30.16,South,177,6.1,9.2,89,0.00,BKN,,0.00,0.0,WeatherDisplay:10.37,2013-04-02 12:25:00,
2013-04-02 05:30:00,47.9,44.8,30.16,SSE,165,8.6,10.4,89,0.00,BKN,,0.00,0.0,WeatherDisplay:10.37,2013-04-02 12:30:00,
2013-04-02 05:35:00,47.8,44.7,30.16,SSW,199,5.1,9.2,89,0.00,OVC,,0.00,0.0,WeatherDisplay:10.37,2013-04-02 12:35:00,
2013-04-02 05:40:00,47.7,44.6,30.15,South,182,6.2,10.4,89,0.00,OVC,,0.00,0.0,WeatherDisplay:10.37,2013-04-02 12:40:00,
2013-04-02 05:45:00,47.7,44.6,30.15,South,190,5.1,10.4,89,0.00,OVC,,0.00,0.0,WeatherDisplay:10.37,2013-04-02 12:45:00,
2013-04-02 05:51:00,47.6,44.5,30.15,South,171,4.6,9.0,89,0.00,OVC,,0.00,0.0,WeatherDisplay:10.37,2013-04-02 12:51:00,
2013-04-02 05:56:00,47.6,44.5,30.15,SSE,159,6.1,10.4,89,0.00,OVC,,0.00,0.0,WeatherDisplay:10.37,2013-04-02 12:56:00,
2013-04-02 06:01:00,47.6,44.5,30.15,SE,129,7.7,11.5,89,0.00,OVC,,0.00,0.0,WeatherDisplay:10.37,2013-04-02 13:01:00,
2013-04-02 06:06:00,47.6,44.8,30.15,South,169,4.4,8.1,90,0.00,OVC,,0.00,0.0,WeatherDisplay:10.37,2013-04-02 13:06:00,
2013-04-02 06:11:00,47.6,44.8,30.16,South,180,7.5,8.1,90,0.00,OVC,,0.00,0.0,WeatherDisplay:10.37,2013-04-02 13:11:00,
2013-04-02 06:16:00,47.5,44.7,30.16,SSE,159,6.8,8.1,90,0.00,BKN,,0.00,0.0,WeatherDisplay:10.37,2013-04-02 13:16:00,
2013-04-02 06:21:00,47.4,44.6,30.16,SSE,153,5.4,8.1,90,0.00,BKN,,0.00,0.0,WeatherDisplay:10.37,2013-04-02 13:21:00,
2013-04-02 06:26:00,47.4,44.6,30.16,SSE,167,7.0,11.5,90,0.00,BKN,,0.00,0.0,WeatherDisplay:10.37,2013-04-02 13:26:00,
2013-04-02 06:31:00,47.3,44.5,30.16,SSE,160,9.0,10.4,90,0.00,BKN,,0.00,0.0,WeatherDisplay:10.37,2013-04-02 13:31:00,
2013-04-02 06:36:00,47.3,44.5,30.16,SE,145,6.7,10.4,90,0.00,BKN,,0.00,5.8,WeatherDisplay:10.37,2013-04-02 13:36:00,
2013-04-02 06:41:00,47.3,44.5,30.15,SSE,153,6.2,8.1,90,0.00,BKN,,0.00,5.8,WeatherDisplay:10.37,2013-04-02 13:41:00,
2013-04-02 06:46:00,47.4,44.6,30.15,SSE,163,4.2,6.9,90,0.00,BKN,,0.00,10.3,WeatherDisplay:10.37,2013-04-02 13:46:00,
2013-04-02 06:51:00,47.4,44.6,30.15,SSE,157,0.5,4.6,90,0.00,BKN,,0.00,16.1,WeatherDisplay:10.37,2013-04-02 13:51:00,
2013-04-02 06:56:00,47.4,44.6,30.15,SSE,163,1.2,3.5,90,0.00,BKN,,0.00,18.4,WeatherDisplay:10.37,2013-04-02 13:56:00,
2013-04-02 07:01:00,47.3,44.5,30.15,South,171,4.4,5.8,90,0.00,OVC,,0.00,21.9,WeatherDisplay:10.37,2013-04-02 14:01:00,
2013-04-02 07:06:00,47.3,44.5,30.16,South,182,1.4,5.8,90,0.00,OVC,,0.00,18.4,WeatherDisplay:10.37,2013-04-02 14:06:00,
2013-04-02 07:11:00,47.2,44.4,30.16,South,191,0.8,4.6,90,0.00,OVC,,0.00,21.9,WeatherDisplay:10.37,2013-04-02 14:11:00,
2013-04-02 07:16:00,47.2,44.4,30.16,SSW,200,2.3,4.6,90,0.00,BKN,,0.00,26.4,WeatherDisplay:10.37,2013-04-02 14:16:00,
2013-04-02 07:21:00,47.2,44.4,30.16,SSW,196,1.4,3.4,90,0.00,BKN,,0.00,29.9,WeatherDisplay:10.37,2013-04-02 14:21:00,
2013-04-02 07:26:00,47.3,44.5,30.16,South,190,6.0,8.1,90,0.00,BKN,,0.00,36.8,WeatherDisplay:10.37,2013-04-02 14:26:00,
2013-04-02 07:32:00,47.2,44.4,30.16,South,185,6.3,8.1,90,0.00,BKN,,0.00,71.3,WeatherDisplay:10.37,2013-04-02 14:32:00,
2013-04-02 07:37:00,47.3,44.5,30.16,SSW,202,7.2,10.4,90,0.00,BKN,,0.00,58.6,WeatherDisplay:10.37,2013-04-02 14:37:00,
2013-04-02 07:42:00,47.3,44.5,30.16,South,177,3.3,8.1,90,0.00,BKN,,0.00,52.9,WeatherDisplay:10.37,2013-04-02 14:42:00,
2013-04-02 07:47:00,47.3,44.5,30.16,SSE,165,9.8,12.7,90,0.00,BKN,,0.00,52.9,WeatherDisplay:10.37,2013-04-02 14:47:00,
2013-04-02 07:52:00,47.3,44.5,30.16,South,170,7.7,11.5,90,0.00,BKN,,0.00,46.0,WeatherDisplay:10.37,2013-04-02 14:52:00,
2013-04-02 07:57:00,47.4,44.6,30.16,South,173,8.8,11.5,90,0.00,BKN,,0.00,54.0,WeatherDisplay:10.37,2013-04-02 14:57:00,
2013-04-02 08:02:00,47.4,44.6,30.16,South,176,8.8,11.5,90,0.00,OVC,,0.00,71.3,WeatherDisplay:10.37,2013-04-02 15:02:00,
2013-04-02 08:08:00,47.4,44.6,30.16,SSE,167,8.7,12.7,90,0.00,OVC,,0.00,56.4,WeatherDisplay:10.37,2013-04-02 15:08:00,
2013-04-02 08:13:00,47.4,44.6,30.16,South,182,13.2,16.1,90,0.00,OVC,,0.00,74.8,WeatherDisplay:10.37,2013-04-02 15:13:00,
2013-04-02 08:18:00,47.5,44.7,30.16,South,173,11.4,13.8,90,0.00,BKN,,0.00,77.0,WeatherDisplay:10.37,2013-04-02 15:18:00,
2013-04-02 08:23:00,47.6,44.8,30.16,South,170,12.7,16.1,90,0.00,BKN,,0.00,80.5,WeatherDisplay:10.37,2013-04-02 15:23:00,
2013-04-02 08:28:00,47.7,44.6,30.17,SSE,163,11.9,15.0,89,0.00,BKN,,0.00,66.7,WeatherDisplay:10.37,2013-04-02 15:28:00,
2013-04-02 08:33:00,47.8,44.7,30.17,SSE,163,11.4,12.7,89,0.00,OVC,,0.00,62.1,WeatherDisplay:10.37,2013-04-02 15:33:00,
2013-04-02 08:38:00,47.8,44.7,30.17,South,177,11.1,15.0,89,0.00,OVC,,0.00,71.3,WeatherDisplay:10.37,2013-04-02 15:38:00,
2013-04-02 08:44:00,47.8,44.7,30.17,South,188,7.4,11.5,89,0.00,OVC,,0.00,143.8,WeatherDisplay:10.37,2013-04-02 15:44:00,
2013-04-02 08:49:00,47.8,44.7,30.16,South,173,10.1,13.8,89,0.00,OVC,,0.00,71.3,WeatherDisplay:10.37,2013-04-02 15:49:00,
2013-04-02 08:54:00,47.8,44.7,30.16,South,187,11.9,14.6,89,0.00,OVC,,0.00,90.8,WeatherDisplay:10.37,2013-04-02 15:54:00,
2013-04-02 08:59:00,47.8,44.7,30.16,South,175,10.5,13.8,89,0.00,OVC,,0.00,123.0,WeatherDisplay:10.37,2013-04-02 15:59:00,
2013-04-02 09:04:00,47.9,44.8,30.16,South,182,11.6,12.7,89,0.00,OVC,,0.00,120.8,WeatherDisplay:10.37,2013-04-02 16:04:00,
2013-04-02 09:09:00,48.0,44.9,30.16,South,180,7.9,12.7,89,0.00,OVC,,0.00,72.5,WeatherDisplay:10.37,2013-04-02 16:09:00,
2013-04-02 09:14:00,48.0,44.9,30.16,South,179,10.7,11.5,89,0.00,OVC,,0.00,77.0,WeatherDisplay:10.37,2013-04-02 16:14:00,
2013-04-02 09:20:00,47.9,44.8,30.16,South,188,8.8,12.7,89,0.00,OVC,,0.00,79.3,WeatherDisplay:10.37,2013-04-02 16:20:00,
2013-04-02 09:25:00,48.0,44.9,30.16,South,177,7.8,10.4,89,0.00,OVC,,0.00,111.5,WeatherDisplay:10.37,2013-04-02 16:25:00,
2013-04-02 09:30:00,48.0,44.9,30.16,South,183,7.3,11.5,89,0.00,OVC,,0.00,139.2,WeatherDisplay:10.37,2013-04-02 16:30:00,
2013-04-02 09:35:00,48.1,44.7,30.16,SSE,160,4.7,5.8,88,0.00,OVC,,0.00,135.7,WeatherDisplay:10.37,2013-04-02 16:35:00,
2013-04-02 09:40:00,48.3,45.2,30.16,SSW,196,7.0,10.4,89,0.00,OVC,,0.00,96.6,WeatherDisplay:10.37,2013-04-02 16:40:00,
2013-04-02 09:45:00,48.4,46.2,30.17,South,191,6.0,8.1,92,0.00,OVC,,0.00,98.9,WeatherDisplay:10.37,2013-04-02 16:45:00,
2013-04-02 09:50:00,48.4,45.3,30.17,SSE,167,1.2,5.8,89,0.00,OVC,,0.00,189.8,WeatherDisplay:10.37,2013-04-02 16:50:00,
2013-04-02 09:55:00,48.5,45.4,30.17,South,184,1.7,4.6,89,0.00,OVC,,0.00,163.3,WeatherDisplay:10.37,2013-04-02 16:55:00,
2013-04-02 10:00:00,48.6,45.5,30.17,South,189,3.0,5.8,89,0.00,OVC,,0.00,173.7,WeatherDisplay:10.37,2013-04-02 17:00:00,
2013-04-02 10:05:00,48.7,45.6,30.17,SW,235,5.8,8.1,89,0.00,OVC,,0.00,155.3,WeatherDisplay:10.37,2013-04-02 17:05:00,
2013-04-02 10:10:00,48.7,45.6,30.17,SSW,196,8.3,11.5,89,0.00,OVC,,0.00,170.2,WeatherDisplay:10.37,2013-04-02 17:10:00,
2013-04-02 10:15:00,48.6,45.2,30.17,SW,217,8.7,13.8,88,0.00,OVC,,0.00,147.2,WeatherDisplay:10.37,2013-04-02 17:15:00,
2013-04-02 10:20:00,48.5,45.1,30.17,South,190,4.9,10.4,88,0.00,OVC,,0.00,236.9,WeatherDisplay:10.37,2013-04-02 17:20:00,
2013-04-02 10:25:00,48.6,45.5,30.17,SW,236,10.8,15.0,89,0.00,OVC,,0.00,224.3,WeatherDisplay:10.37,2013-04-02 17:25:00,
2013-04-02 10:30:00,48.5,45.1,30.17,SW,221,11.7,15.0,88,0.00,OVC,,0.00,125.3,WeatherDisplay:10.37,2013-04-02 17:30:00,
2013-04-02 10:35:00,48.4,45.0,30.17,SW,223,8.0,8.0,88,0.00,OVC,,0.00,117.3,WeatherDisplay:10.37,2013-04-02 17:35:00,
2013-04-02 10:40:00,48.3,44.9,30.17,SSE,154,5.6,8.1,88,0.00,OVC,,0.00,261.1,WeatherDisplay:10.37,2013-04-02 17:40:00,
2013-04-02 10:45:00,48.5,45.4,30.17,SE,126,4.6,5.8,89,0.00,OVC,,0.00,290.9,WeatherDisplay:10.37,2013-04-02 17:45:00,
2013-04-02 10:52:00,48.9,45.8,30.17,SSE,164,5.4,6.9,89,0.00,OVC,,0.00,171.3,WeatherDisplay:10.37,2013-04-02 17:52:00,
2013-04-02 10:57:00,49.0,45.9,30.17,SSE,148,3.1,5.8,89,0.00,OVC,,0.00,240.3,WeatherDisplay:10.37,2013-04-02 17:57:00,
2013-04-02 11:02:00,49.1,46.0,30.17,South,184,0.2,2.3,89,0.00,OVC,,0.00,250.7,WeatherDisplay:10.37,2013-04-02 18:02:00,
2013-04-02 11:07:00,49.3,46.2,30.17,SE,136,6.3,6.9,89,0.00,OVC,,0.00,253.0,WeatherDisplay:10.37,2013-04-02 18:07:00,
2013-04-02 11:12:00,49.5,46.1,30.17,SSE,158,6.0,8.1,88,0.00,OVC,,0.00,125.3,WeatherDisplay:10.37,2013-04-02 18:12:00,
2013-04-02 11:17:00,49.5,45.8,30.17,SSE,152,7.4,8.1,87,0.00,OVC,,0.00,216.2,WeatherDisplay:10.37,2013-04-02 18:17:00,
2013-04-02 11:22:00,49.5,45.5,30.18,SSE,161,4.1,8.1,86,0.00,OVC,,0.00,189.8,WeatherDisplay:10.37,2013-04-02 18:22:00,
2013-04-02 11:27:00,49.7,45.7,30.17,SSE,157,6.5,6.9,86,0.00,OVC,,0.00,228.8,WeatherDisplay:10.37,2013-04-02 18:27:00,
2013-04-02 11:32:00,49.7,45.7,30.18,SSE,162,6.2,8.1,86,0.00,OVC,,0.00,200.1,WeatherDisplay:10.37,2013-04-02 18:32:00,
2013-04-02 11:38:00,49.8,45.8,30.18,SSE,164,2.7,5.8,86,0.00,OVC,,0.00,165.6,WeatherDisplay:10.37,2013-04-02 18:38:00,
2013-04-02 11:43:00,49.8,45.5,30.18,South,182,0.3,4.6,85,0.00,OVC,,0.00,171.3,WeatherDisplay:10.37,2013-04-02 18:43:00,
2013-04-02 11:48:00,49.9,45.3,30.18,SSW,199,3.8,5.8,84,0.00,OVC,,0.00,212.8,WeatherDisplay:10.37,2013-04-02 18:48:00,
2013-04-02 11:53:00,50.1,45.2,30.18,South,184,0.9,4.6,83,0.00,OVC,,0.00,192.1,WeatherDisplay:10.37,2013-04-02 18:53:00,
2013-04-02 11:58:00,50.2,45.3,30.18,South,173,4.8,5.8,83,0.00,OVC,,0.00,175.9,WeatherDisplay:10.37,2013-04-02 18:58:00,
2013-04-02 12:03:00,50.3,45.4,30.18,South,186,3.7,4.6,83,0.00,OVC,,0.00,236.9,WeatherDisplay:10.37,2013-04-02 19:03:00,
2013-04-02 12:08:00,50.4,45.1,30.18,South,177,4.3,5.8,82,0.00,OVC,,0.00,315.1,WeatherDisplay:10.37,2013-04-02 19:08:00,
2013-04-02 12:14:00,50.6,45.3,30.17,SSW,198,4.0,5.8,82,0.00,OVC,,0.00,355.4,WeatherDisplay:10.37,2013-04-02 19:14:00,
2013-04-02 12:19:00,50.9,45.9,30.17,SSW,192,4.8,6.9,83,0.00,OVC,,0.00,414.0,WeatherDisplay:10.37,2013-04-02 19:19:00,
2013-04-02 12:24:00,51.2,45.9,30.17,South,189,4.5,5.8,82,0.00,OVC,,0.00,480.7,WeatherDisplay:10.37,2013-04-02 19:24:00,
2013-04-02 12:29:00,51.5,45.9,30.17,SW,222,7.3,8.1,81,0.00,OVC,,0.00,392.1,WeatherDisplay:10.37,2013-04-02 19:29:00,
2013-04-02 12:34:00,51.7,45.7,30.17,SSW,197,5.9,6.9,80,0.00,OVC,,0.00,370.3,WeatherDisplay:10.37,2013-04-02 19:34:00,
2013-04-02 12:39:00,51.8,45.5,30.17,SSW,196,4.1,6.9,79,0.00,OVC,,0.00,416.3,WeatherDisplay:10.37,2013-04-02 19:39:00,
2013-04-02 12:44:00,51.9,45.3,30.17,South,182,6.0,8.1,78,0.00,OVC,,0.00,397.9,WeatherDisplay:10.37,2013-04-02 19:44:00,
2013-04-02 12:50:00,52.0,45.7,30.17,SSW,212,4.7,6.9,79,0.00,OVC,,0.00,527.9,WeatherDisplay:10.37,2013-04-02 19:50:00,
2013-04-02 12:55:00,52.4,46.1,30.17,SSW,213,7.0,10.0,79,0.00,OVC,,0.00,434.7,WeatherDisplay:10.37,2013-04-02 19:55:00,
2013-04-02 13:00:00,52.6,46.0,30.17,SSW,213,5.9,6.9,78,0.00,OVC,,0.00,487.6,WeatherDisplay:10.37,2013-04-02 20:00:00,
2013-04-02 13:05:00,53.0,46.3,30.17,SW,222,7.6,8.1,78,0.00,OVC,,0.00,596.9,WeatherDisplay:10.37,2013-04-02 20:05:00,
2013-04-02 13:10:00,53.4,46.4,30.17,SSW,198,8.0,11.5,77,0.00,OVC,,0.00,749.8,WeatherDisplay:10.37,2013-04-02 20:10:00,
2013-04-02 13:15:00,53.8,46.4,30.17,SW,215,8.4,9.2,76,0.00,OVC,,0.00,523.3,WeatherDisplay:10.37,2013-04-02 20:15:00,
2013-04-02 13:20:00,53.8,46.1,30.17,SSW,194,7.3,9.2,75,0.00,BKN,,0.00,576.1,WeatherDisplay:10.37,2013-04-02 20:20:00,
2013-04-02 13:25:00,54.1,46.7,30.17,SSW,213,7.9,10.4,76,0.00,BKN,,0.00,405.9,WeatherDisplay:10.37,2013-04-02 20:25:00,
2013-04-02 13:30:00,54.2,46.1,30.18,SSW,203,12.1,12.7,74,0.00,BKN,,0.00,557.8,WeatherDisplay:10.37,2013-04-02 20:30:00,
2013-04-02 13:35:00,54.2,46.5,30.18,SSW,210,12.9,12.9,75,0.00,OVC,,0.00,703.8,WeatherDisplay:10.37,2013-04-02 20:35:00,
2013-04-02 13:40:00,54.5,47.1,30.18,SW,229,9.4,12.7,76,0.00,OVC,,0.00,604.9,WeatherDisplay:10.37,2013-04-02 20:40:00,
2013-04-02 13:45:00,54.7,47.3,30.18,SW,215,10.1,15.0,76,0.00,OVC,,0.00,578.5,WeatherDisplay:10.37,2013-04-02 20:45:00,
2013-04-02 13:50:00,55.0,47.6,30.18,SW,215,14.1,15.0,76,0.00,OVC,,0.00,757.9,WeatherDisplay:10.37,2013-04-02 20:50:00,
2013-04-02 13:55:00,55.3,46.8,30.18,SW,227,15.0,15.0,73,0.00,OVC,,0.00,1071.8,WeatherDisplay:10.37,2013-04-02 20:55:00,
2013-04-02 14:00:00,55.3,46.8,30.18,SW,216,12.3,16.1,73,0.00,OVC,,0.00,990.1,WeatherDisplay:10.37,2013-04-02 21:00:00,
2013-04-02 14:05:00,55.8,47.3,30.17,SSW,204,13.5,14.6,73,0.00,OVC,,0.00,867.1,WeatherDisplay:10.37,2013-04-02 21:05:00,
2013-04-02 14:10:00,56.0,46.7,30.17,SW,218,15.2,15.2,71,0.00,OVC,,0.00,856.8,WeatherDisplay:10.37,2013-04-02 21:10:00,
2013-04-02 14:15:00,56.0,46.7,30.17,SSW,205,13.9,13.9,71,0.00,OVC,,0.00,920.0,WeatherDisplay:10.37,2013-04-02 21:15:00,
2013-04-02 14:20:00,56.2,46.6,30.17,SSW,213,14.0,16.1,70,0.00,OVC,,0.00,880.9,WeatherDisplay:10.37,2013-04-02 21:20:00,
2013-04-02 14:25:00,56.3,46.3,30.17,SW,221,11.2,16.1,69,0.00,OVC,,0.00,838.4,WeatherDisplay:10.37,2013-04-02 21:25:00,
2013-04-02 14:31:00,56.3,46.3,30.17,SSW,203,14.1,15.0,69,0.00,OVC,,0.00,776.3,WeatherDisplay:10.37,2013-04-02 21:31:00,
2013-04-02 14:36:00,56.2,45.4,30.17,SSW,202,8.9,11.5,67,0.00,OVC,,0.00,533.6,WeatherDisplay:10.37,2013-04-02 21:36:00,
2013-04-02 14:41:00,56.1,46.5,30.17,SSW,202,10.5,11.5,70,0.00,OVC,,0.00,845.3,WeatherDisplay:10.37,2013-04-02 21:41:00,
2013-04-02 14:46:00,56.1,46.8,30.17,SSW,204,12.0,12.7,71,0.00,OVC,,0.00,832.6,WeatherDisplay:10.37,2013-04-02 21:46:00,
2013-04-02 14:52:00,56.4,47.1,30.17,SSW,198,8.0,11.5,71,0.00,OVC,,0.00,863.6,WeatherDisplay:10.37,2013-04-02 21:52:00,
2013-04-02 14:57:00,56.7,47.0,30.17,SW,223,12.8,16.1,70,0.00,OVC,,0.00,863.6,WeatherDisplay:10.37,2013-04-02 21:57:00,
2013-04-02 15:02:00,56.5,47.2,30.17,SSW,199,12.2,15.0,71,0.00,SCT,,0.00,776.3,WeatherDisplay:10.37,2013-04-02 22:02:00,
2013-04-02 15:07:00,56.4,47.5,30.17,SSW,194,11.9,13.8,72,0.00,SCT,,0.00,851.0,WeatherDisplay:10.37,2013-04-02 22:07:00,
2013-04-02 15:12:00,56.6,48.1,30.17,WSW,250,11.1,12.7,73,0.00,SCT,,0.00,851.0,WeatherDisplay:10.37,2013-04-02 22:12:00,
2013-04-02 15:17:00,56.1,47.2,30.17,SW,221,12.8,15.0,72,0.00,FEW,,0.00,903.9,WeatherDisplay:10.37,2013-04-02 22:17:00,
2013-04-02 15:22:00,55.5,47.4,30.17,SW,227,11.7,12.7,74,0.00,FEW,,0.00,903.9,WeatherDisplay:10.37,2013-04-02 22:22:00,
2013-04-02 15:27:00,55.2,47.1,30.17,SW,218,8.2,10.4,74,0.00,FEW,,0.00,915.4,WeatherDisplay:10.37,2013-04-02 22:27:00,
2013-04-02 15:32:00,55.2,47.1,30.17,WSW,246,9.2,10.4,74,0.00,SCT,,0.00,493.4,WeatherDisplay:10.37,2013-04-02 22:32:00,
2013-04-02 15:37:00,55.3,47.5,30.17,SW,234,12.3,12.7,75,0.00,SCT,,0.00,847.5,WeatherDisplay:10.37,2013-04-02 22:37:00,
2013-04-02 15:43:00,55.7,47.2,30.17,SW,229,7.2,9.2,73,0.00,SCT,,0.00,768.2,WeatherDisplay:10.37,2013-04-02 22:43:00,
2013-04-02 15:48:00,56.1,46.5,30.17,SW,214,11.1,12.7,70,0.00,SCT,,0.00,755.5,WeatherDisplay:10.37,2013-04-02 22:48:00,
2013-04-02 15:53:00,55.9,45.5,30.17,SSW,205,10.5,11.5,68,0.00,SCT,,0.00,127.7,WeatherDisplay:10.37,2013-04-02 22:53:00,
2013-04-02 15:58:00,55.2,44.8,30.17,South,177,9.2,11.5,68,0.00,SCT,,0.00,173.7,WeatherDisplay:10.37,2013-04-02 22:58:00,
2013-04-02 16:03:00,54.5,44.6,30.17,SSW,198,8.2,11.5,69,0.00,SCT,,0.00,218.5,WeatherDisplay:10.37,2013-04-02 23:03:00,
2013-04-02 16:08:00,54.1,44.9,30.17,South,184,8.3,10.4,71,0.00,SCT,,0.00,266.8,WeatherDisplay:10.37,2013-04-02 23:08:00,
2013-04-02 16:13:00,53.7,44.5,30.17,South,190,9.7,11.5,71,0.00,SCT,,0.00,327.8,WeatherDisplay:10.37,2013-04-02 23:13:00,
2013-04-02 16:18:00,53.6,45.2,30.17,South,186,7.2,11.5,73,0.00,FEW,,0.00,412.9,WeatherDisplay:10.37,2013-04-02 23:18:00,
2013-04-02 16:23:00,53.7,45.3,30.17,SSW,195,10.1,12.7,73,0.00,FEW,,0.00,330.1,WeatherDisplay:10.37,2013-04-02 23:23:00,
2013-04-02 16:28:00,53.9,45.8,30.17,SSW,205,13.4,13.8,74,0.00,FEW,,0.00,782.0,WeatherDisplay:10.37,2013-04-02 23:28:00,
2013-04-02 16:34:00,54.9,47.1,30.17,SSW,194,9.0,11.2,75,0.00,FEW,,0.00,752.1,WeatherDisplay:10.37,2013-04-02 23:34:00,
2013-04-02 16:39:00,55.8,46.9,30.17,SW,218,12.0,13.4,72,0.00,FEW,,0.00,701.5,WeatherDisplay:10.37,2013-04-02 23:39:00,
2013-04-02 16:44:00,56.0,45.6,30.17,SSW,207,13.0,15.0,68,0.00,FEW,,0.00,301.3,WeatherDisplay:10.37,2013-04-02 23:44:00,
2013-04-02 16:49:00,55.5,45.1,30.17,SSW,213,4.4,11.5,68,0.00,FEW,,0.00,184.0,WeatherDisplay:10.37,2013-04-02 23:49:00,
2013-04-02 16:54:00,54.9,45.3,30.17,SSW,208,9.6,11.5,70,0.00,FEW,,0.00,218.5,WeatherDisplay:10.37,2013-04-02 23:54:00,
2013-04-02 16:59:00,54.4,45.6,30.17,SW,215,5.8,8.1,72,0.00,FEW,,0.00,212.8,WeatherDisplay:10.37,2013-04-02 23:59:00,
2013-04-02 17:04:00,54.1,44.9,30.17,SW,226,8.4,10.4,71,0.00,SCT,,0.00,213.9,WeatherDisplay:10.37,2013-04-03 00:04:00,
2013-04-02 17:09:00,53.9,45.1,30.17,SW,222,7.2,11.2,72,0.00,SCT,,0.00,254.2,WeatherDisplay:10.37,2013-04-03 00:09:00,
2013-04-02 17:14:00,53.6,44.4,30.16,SSW,204,10.6,12.3,71,0.00,SCT,,0.00,248.4,WeatherDisplay:10.37,2013-04-03 00:14:00,
2013-04-02 17:19:00,53.3,44.2,30.16,SSW,200,8.1,13.8,71,0.00,OVC,,0.00,224.3,WeatherDisplay:10.37,2013-04-03 00:19:00,
2013-04-02 17:24:00,53.1,44.3,30.16,South,180,11.0,13.8,72,0.00,OVC,,0.00,208.2,WeatherDisplay:10.37,2013-04-03 00:24:00,
2013-04-02 17:30:00,53.0,44.2,30.16,SSW,196,6.0,12.0,72,0.00,OVC,,0.00,205.8,WeatherDisplay:10.37,2013-04-03 00:30:00,
2013-04-02 17:35:00,52.9,44.1,30.16,SSW,194,4.5,5.8,72,0.00,BKN,,0.00,171.3,WeatherDisplay:10.37,2013-04-03 00:35:00,
2013-04-02 17:40:00,52.9,44.1,30.16,South,187,5.9,8.1,72,0.00,BKN,,0.00,192.1,WeatherDisplay:10.37,2013-04-03 00:40:00,
2013-04-02 17:45:00,52.9,43.8,30.16,SSW,198,5.4,6.9,71,0.00,BKN,,0.00,170.2,WeatherDisplay:10.37,2013-04-03 00:45:00,
2013-04-02 17:50:00,52.9,44.1,30.16,SSW,195,3.8,5.8,72,0.00,BKN,,0.00,157.6,WeatherDisplay:10.37,2013-04-03 00:50:00,
2013-04-02 17:55:00,53.0,44.6,30.16,South,180,6.9,10.4,73,0.00,BKN,,0.00,131.1,WeatherDisplay:10.37,2013-04-03 00:55:00,
2013-04-02 18:00:00,52.9,44.1,30.16,South,179,5.5,8.1,72,0.00,BKN,,0.00,125.3,WeatherDisplay:10.37,2013-04-03 01:00:00,
2013-04-02 18:05:00,52.8,44.0,30.16,South,183,2.8,5.8,72,0.00,OVC,,0.00,127.7,WeatherDisplay:10.37,2013-04-03 01:05:00,
2013-04-02 18:10:00,52.8,44.0,30.16,South,190,6.5,8.1,72,0.00,OVC,,0.00,117.3,WeatherDisplay:10.37,2013-04-03 01:10:00,
2013-04-02 18:15:00,52.7,44.3,30.16,SSW,198,1.4,6.9,73,0.00,OVC,,0.00,107.0,WeatherDisplay:10.37,2013-04-03 01:15:00,
2013-04-02 18:20:00,52.7,44.7,30.16,SSW,192,4.7,5.8,74,0.00,OVC,,0.00,93.2,WeatherDisplay:10.37,2013-04-03 01:20:00,
2013-04-02 18:26:00,52.6,44.2,30.16,South,182,2.4,5.8,73,0.00,OVC,,0.00,82.8,WeatherDisplay:10.37,2013-04-03 01:26:00,
2013-04-02 18:31:00,52.5,44.1,30.16,SE,132,4.9,6.9,73,0.00,OVC,,0.00,80.5,WeatherDisplay:10.37,2013-04-03 01:31:00,
2013-04-02 18:36:00,52.5,44.8,30.16,SSE,164,3.5,6.9,75,0.00,OVC,,0.00,79.3,WeatherDisplay:10.37,2013-04-03 01:36:00,
2013-04-02 18:41:00,52.4,44.7,30.16,SSE,165,5.5,8.1,75,0.00,OVC,,0.00,71.3,WeatherDisplay:10.37,2013-04-03 01:41:00,
2013-04-02 18:46:00,52.3,44.6,30.16,South,188,6.2,8.1,75,0.00,OVC,,0.00,61.0,WeatherDisplay:10.37,2013-04-03 01:46:00,
2013-04-02 18:51:00,52.0,44.0,30.16,South,184,5.1,6.9,74,0.00,OVC,,0.00,48.3,WeatherDisplay:10.37,2013-04-03 01:51:00,
2013-04-02 18:56:00,51.9,43.9,30.15,South,184,3.1,4.6,74,0.00,OVC,,0.00,42.5,WeatherDisplay:10.37,2013-04-03 01:56:00,
2013-04-02 19:02:00,51.7,44.0,30.15,SSE,166,4.4,5.8,75,0.00,OVC,,0.00,36.8,WeatherDisplay:10.37,2013-04-03 02:02:00,
2013-04-02 19:07:00,51.7,44.4,30.15,SSW,200,0.0,2.3,76,0.00,OVC,,0.00,29.9,WeatherDisplay:10.37,2013-04-03 02:07:00,
2013-04-02 19:12:00,51.5,44.2,30.15,South,186,1.8,5.8,76,0.00,OVC,,0.00,24.1,WeatherDisplay:10.37,2013-04-03 02:12:00,
2013-04-02 19:17:00,51.4,44.1,30.15,South,169,3.5,5.8,76,0.00,OVC,,0.00,20.7,WeatherDisplay:10.37,2013-04-03 02:17:00,
2013-04-02 19:22:00,51.3,44.4,30.15,South,179,0.6,2.3,77,0.00,OVC,,0.00,16.1,WeatherDisplay:10.37,2013-04-03 02:22:00,
2013-04-02 19:27:00,51.2,44.3,30.15,South,179,1.4,2.3,77,0.00,OVC,,0.00,13.8,WeatherDisplay:10.37,2013-04-03 02:27:00,
2013-04-02 19:34:00,51.0,44.4,30.15,South,177,2.3,4.6,78,0.00,OVC,,0.00,12.7,WeatherDisplay:10.37,2013-04-03 02:34:00,
2013-04-02 19:39:00,50.9,44.3,30.15,SSW,194,1.3,4.6,78,0.00,OVC,,0.00,8.1,WeatherDisplay:10.37,2013-04-03 02:39:00,
2013-04-02 19:44:00,50.8,44.2,30.15,SSW,192,0.3,3.5,78,0.00,OVC,,0.00,8.1,WeatherDisplay:10.37,2013-04-03 02:44:00,
2013-04-02 19:49:00,50.7,44.1,30.15,SSW,192,0.0,1.2,78,0.00,OVC,,0.00,5.8,WeatherDisplay:10.37,2013-04-03 02:49:00,
2013-04-02 19:54:00,50.6,44.0,30.15,SSW,192,0.0,0.0,78,0.00,OVC,,0.00,5.8,WeatherDisplay:10.37,2013-04-03 02:54:00,
2013-04-02 19:59:00,50.5,43.9,30.15,SSW,192,0.6,0.0,78,0.00,OVC,,0.00,0.0,WeatherDisplay:10.37,2013-04-03 02:59:00,
2013-04-02 20:04:00,50.4,43.8,30.15,SSW,192,0.2,0.0,78,0.00,OVC,,0.00,0.0,WeatherDisplay:10.37,2013-04-03 03:04:00,
2013-04-02 20:09:00,50.3,43.7,30.15,SSW,193,0.0,0.0,78,0.00,OVC,,0.00,0.0,WeatherDisplay:10.37,2013-04-03 03:09:00,
2013-04-02 20:15:00,50.3,44.1,30.16,SSW,193,0.0,0.0,79,0.00,OVC,,0.00,0.0,WeatherDisplay:10.37,2013-04-03 03:15:00,
2013-04-02 20:20:00,50.2,44.0,30.16,SSW,193,0.0,0.0,79,0.00,OVC,,0.00,0.0,WeatherDisplay:10.37,2013-04-03 03:20:00,
2013-04-02 20:25:00,50.2,44.0,30.16,SSW,193,0.0,0.0,79,0.00,OVC,,0.00,0.0,WeatherDisplay:10.37,2013-04-03 03:25:00,
2013-04-02 20:30:00,50.1,43.9,30.16,SSW,193,0.0,0.0,79,0.00,OVC,,0.00,0.0,WeatherDisplay:10.37,2013-04-03 03:30:00,
2013-04-02 20:35:00,49.9,44.0,30.16,SSW,193,0.0,0.0,80,0.00,OVC,,0.00,0.0,WeatherDisplay:10.37,2013-04-03 03:35:00,
2013-04-02 20:40:00,49.9,43.9,30.16,SSW,193,0.0,0.0,80,0.00,OVC,,0.00,0.0,WeatherDisplay:10.37,2013-04-03 03:40:00,
2013-04-02 20:45:00,49.8,43.9,30.16,SSW,192,0.0,0.0,80,0.00,OVC,,0.00,0.0,WeatherDisplay:10.37,2013-04-03 03:45:00,
2013-04-02 20:50:00,49.7,43.8,30.16,SSW,192,0.0,0.0,80,0.00,OVC,,0.00,0.0,WeatherDisplay:10.37,2013-04-03 03:50:00,
2013-04-02 20:55:00,49.6,43.7,30.16,SSW,192,0.0,0.0,80,0.00,OVC,,0.00,0.0,WeatherDisplay:10.37,2013-04-03 03:55:00,
2013-04-02 21:00:00,49.5,43.6,30.16,SSW,193,0.0,0.0,80,0.00,OVC,,0.00,0.0,WeatherDisplay:10.37,2013-04-03 04:00:00,
2013-04-02 21:05:00,49.4,43.5,30.16,SSW,192,0.0,0.0,80,0.00,OVC,,0.00,0.0,WeatherDisplay:10.37,2013-04-03 04:05:00,
2013-04-02 21:10:00,49.4,43.8,30.16,SSW,192,0.0,0.0,81,0.00,OVC,,0.00,0.0,WeatherDisplay:10.37,2013-04-03 04:10:00,
2013-04-02 21:15:00,49.4,43.8,30.16,SSW,192,0.0,0.0,81,0.00,OVC,,0.00,0.0,WeatherDisplay:10.37,2013-04-03 04:15:00,
2013-04-02 21:20:00,49.3,43.7,30.16,SSW,193,0.0,0.0,81,0.00,BKN,,0.00,0.0,WeatherDisplay:10.37,2013-04-03 04:20:00,
2013-04-02 21:25:00,49.2,43.6,30.16,SSW,193,0.0,0.0,81,0.00,BKN,,0.00,0.0,WeatherDisplay:10.37,2013-04-03 04:25:00,
2013-04-02 21:30:00,49.2,43.6,30.16,SSW,192,0.0,0.0,81,0.00,BKN,,0.00,0.0,WeatherDisplay:10.37,2013-04-03 04:30:00,
2013-04-02 21:35:00,49.1,43.5,30.16,SSW,193,0.0,0.0,81,0.00,SCT,,0.00,0.0,WeatherDisplay:10.37,2013-04-03 04:35:00,
2013-04-02 21:40:00,49.0,43.4,30.16,SSW,193,0.0,0.0,81,0.00,SCT,,0.00,0.0,WeatherDisplay:10.37,2013-04-03 04:40:00,
2013-04-02 21:45:00,49.0,43.4,30.17,SSW,192,0.0,0.0,81,0.00,SCT,,0.00,0.0,WeatherDisplay:10.37,2013-04-03 04:45:00,
2013-04-02 21:50:00,48.9,43.7,30.17,SW,231,0.0,0.0,82,0.00,SCT,,0.00,0.0,WeatherDisplay:10.37,2013-04-03 04:50:00,
2013-04-02 21:55:00,48.9,43.7,30.17,SW,231,0.0,0.0,82,0.00,SCT,,0.00,0.0,WeatherDisplay:10.37,2013-04-03 04:55:00,
2013-04-02 22:00:00,48.8,43.6,30.17,West,277,0.0,0.0,82,0.00,SCT,,0.00,0.0,WeatherDisplay:10.37,2013-04-03 05:00:00,
2013-04-02 22:05:00,48.8,43.6,30.17,WNW,286,0.0,0.0,82,0.00,FEW,,0.00,0.0,WeatherDisplay:10.37,2013-04-03 05:05:00,
2013-04-02 22:10:00,48.7,43.8,30.17,NW,325,0.1,0.0,83,0.00,FEW,,0.00,0.0,WeatherDisplay:10.37,2013-04-03 05:10:00,
2013-04-02 22:15:00,48.6,43.7,30.17,NW,325,0.0,0.0,83,0.00,FEW,,0.00,0.0,WeatherDisplay:10.37,2013-04-03 05:15:00,
2013-04-02 22:20:00,48.5,43.9,30.17,NNW,339,0.0,0.0,84,0.00,FEW,,0.00,0.0,WeatherDisplay:10.37,2013-04-03 05:20:00,
2013-04-02 22:25:00,48.5,43.9,30.17,NNW,343,0.1,3.5,84,0.00,FEW,,0.00,0.0,WeatherDisplay:10.37,2013-04-03 05:25:00,
2013-04-02 22:30:00,48.5,44.2,30.17,NNW,343,0.0,0.0,85,0.00,FEW,,0.00,0.0,WeatherDisplay:10.37,2013-04-03 05:30:00,
2013-04-02 22:35:00,48.5,44.2,30.17,NNW,343,0.0,0.0,85,0.00,FEW,,0.00,0.0,WeatherDisplay:10.37,2013-04-03 05:35:00,
2013-04-02 22:40:00,48.4,44.1,30.17,NNW,343,0.0,0.0,85,0.00,FEW,,0.00,0.0,WeatherDisplay:10.37,2013-04-03 05:40:00,
2013-04-02 22:45:00,48.4,44.1,30.17,NNW,343,0.0,0.0,85,0.00,FEW,,0.00,0.0,WeatherDisplay:10.37,2013-04-03 05:45:00,
2013-04-02 22:50:00,48.4,44.1,30.18,NNW,343,0.0,0.0,85,0.00,FEW,,0.00,0.0,WeatherDisplay:10.37,2013-04-03 05:50:00,
2013-04-02 22:55:00,48.4,44.1,30.17,NNW,343,0.0,0.0,85,0.00,FEW,,0.00,0.0,WeatherDisplay:10.37,2013-04-03 05:55:00,
2013-04-02 23:00:00,48.3,44.0,30.17,NNW,343,0.0,0.0,85,0.00,FEW,,0.00,0.0,WeatherDisplay:10.37,2013-04-03 06:00:00,
2013-04-02 23:05:00,48.3,44.0,30.17,NNW,343,0.0,0.0,85,0.00,SCT,,0.00,0.0,WeatherDisplay:10.37,2013-04-03 06:05:00,
2013-04-02 23:10:00,48.2,43.9,30.17,NNW,343,0.0,0.0,85,0.00,SCT,,0.00,0.0,WeatherDisplay:10.37,2013-04-03 06:10:00,
2013-04-02 23:15:00,48.1,43.8,30.17,NNW,343,0.0,0.0,85,0.00,SCT,,0.00,0.0,WeatherDisplay:10.37,2013-04-03 06:15:00,
2013-04-02 23:20:00,48.1,43.8,30.17,NNW,343,0.0,0.0,85,0.00,BKN,,0.00,0.0,WeatherDisplay:10.37,2013-04-03 06:20:00,
2013-04-02 23:26:00,48.1,44.1,30.17,NNW,343,0.0,0.0,86,0.00,BKN,,0.00,0.0,WeatherDisplay:10.37,2013-04-03 06:26:00,
2013-04-02 23:31:00,48.0,44.0,30.17,NNW,343,0.0,0.0,86,0.00,BKN,,0.00,0.0,WeatherDisplay:10.37,2013-04-03 06:31:00,
2013-04-02 23:36:00,48.0,44.9,30.17,NNW,343,0.0,0.0,89,0.00,OVC,,0.00,0.0,WeatherDisplay:10.37,2013-04-03 06:36:00,
2013-04-02 23:41:00,47.9,43.9,30.17,NNW,343,0.0,0.0,86,0.00,OVC,,0.00,0.0,WeatherDisplay:10.37,2013-04-03 06:41:00,
2013-04-02 23:46:00,47.9,43.9,30.17,NE,48,0.0,0.0,86,0.00,OVC,,0.00,0.0,WeatherDisplay:10.37,2013-04-03 06:46:00,
2013-04-02 23:51:00,47.9,43.9,30.17,ENE,78,0.0,0.0,86,0.00,OVC,,0.00,0.0,WeatherDisplay:10.37,2013-04-03 06:51:00,
2013-04-02 23:56:00,47.9,43.9,30.17,ESE,119,0.4,3.5,86,0.00,OVC,,0.00,0.0,WeatherDisplay:10.37,2013-04-03 06:56:00,